Aviation Digital Data Service (ADDS)

Output produced by TAFs form (2206 UTC 23 April 2014)
found at http://aviationweather.gov/adds/tafs/
 
KROW 231720Z 2318/2418 21016G26KT P6SM SCT200 
     FM232000 23024G34KT P6SM SCT200 
     FM240200 25015KT P6SM SKC 
     FM240800 29010KT P6SM SKC 
     FM241100 36010KT P6SM SKC